Terminal Aerodrome Forecast
Issued by NWS

Home | Current Version | Previous Version | Text Only | Print | Product List | Glossary On
Versions: 1 2 3 4 5 6 7 8 9 10 11 12 13 14 15 16 17 18
000
FTUS43 KMPX 271120
TAFRNH
TAF
KRNH 271120Z 2712/2812 25004KT 6SM BR FEW002 SCT015 BKN090
     FM271300 24008KT P6SM BKN090
     FM271600 27010G16KT P6SM FEW090
     FM272100 27010G16KT P6SM VCSH BKN080
     FM280100 VRB02KT P6SM SKC=

USA.gov is the U.S. government's official web portal to all federal, state and local government web resources and services.